Mandarin Grace — 9V8352 — position and weather

sailwx.info

Track history (hours):
 
Tides and Currents Weather Stations Pressure Air Temp Water Temp Dewpoint Dewpoint Depression Visibility Wind Speed Wind Dir Waves Ship Positions

Mandarin Grace

Last reported at 2015-Aug-14 08:19 UTC. Time now 2015-Sep-04 07:49 UTC.
Position S 03°59' E 115°33'.
Warning: this ship's position is 20 days out of date.

Length 190 m; draft 6.4 m.

Type: Cargo ship. MMSI: 563862000.

Date/timePositionNaut miles runAvg speedWind from/ knotsBaromVisibWave heightAir tempDewpointWater temp
2015-Aug-14 08:19S 03°59' E 115°33'0 0.0
2015-Aug-14 07:19S 03°59' E 115°33'0 0.0
2015-Aug-14 06:31S 03°59' E 115°33'0 0.0
2015-Aug-14 05:31S 03°59' E 115°33'0 0.0
2015-Aug-13 07:19S 03°59' E 115°33'0 0.0
2015-Aug-12 06:22S 03°59' E 115°33'0 0.0
2015-Aug-12 04:19S 03°59' E 115°33'  
2015-Aug-08 22:28S 03°59' E 115°33'0 0.0
2015-Aug-08 19:31S 03°59' E 115°33'0 0.0
2015-Aug-08 09:31S 03°59' E 115°33'0 0.0
2015-Aug-07 20:28S 03°59' E 115°33'0 0.1
2015-Aug-07 17:30S 03°59' E 115°33'7 6.2
2015-Aug-07 16:25S 04°06' E 115°32'8 8.1
2015-Aug-07 15:26S 04°12' E 115°28'1011.1
2015-Aug-07 14:33S 04°16' E 115°19'9411.8
2015-Aug-07 06:32S 04°26' E 113°45'1511.8
2015-Aug-07 05:15S 04°25' E 113°30'811.6
2015-Aug-07 04:33S 04°24' E 113°22'1211.5
2015-Aug-07 03:30S 04°23' E 113°09'2311.5
2015-Aug-07 01:31S 04°19' E 112°47'1111.6
2015-Aug-07 00:34S 04°16' E 112°36'1211.8
2015-Aug-06 23:33S 04°15' E 112°24'1311.8
2015-Aug-06 22:30S 04°13' E 112°12'1311.8
2015-Aug-06 21:23S 04°10' E 111°59'1012.1
2015-Aug-06 20:33S 04°07' E 111°50'1212.2
2015-Aug-06 19:34S 04°03' E 111°38'1212.3
2015-Aug-06 18:34S 04°00' E 111°26'1212.4
2015-Aug-06 17:34S 03°57' E 111°14'1212.4
2015-Aug-06 16:33S 03°54' E 111°02'2612.1
2015-Aug-06 14:27S 03°53' E 110°36'49511.5
2015-Aug-04 19:16N 01°16' E 104°10'913.2
2015-Aug-04 18:34N 01°15' E 104°01'1212.0
2015-Aug-04 17:34N 01°12' E 103°49'8 7.6
2015-Aug-04 16:33N 01°18' E 103°44'1 1.0
2015-Aug-04 15:28N 01°18' E 103°43'0 0.0
2015-Aug-04 13:19N 01°18' E 103°43'0 0.0
2015-Aug-04 12:31N 01°18' E 103°43'0 0.0
2015-Aug-04 11:13N 01°18' E 103°43'0 0.0
2015-Aug-04 10:07N 01°18' E 103°43'0 0.0
2015-Aug-04 09:31N 01°18' E 103°43'0 0.0
2015-Aug-04 08:31N 01°18' E 103°43'  
Track history (hours):
 
Tides and Currents Weather Stations Pressure Air Temp Water Temp Dewpoint Dewpoint Depression Visibility Wind Speed Wind Dir Waves Ship Positions

Mandarin Grace

Last reported at 2015-Aug-14 08:19 UTC. Time now 2015-Sep-04 07:49 UTC.
Position S 03°59' E 115°33'.
Warning: this ship's position is 20 days out of date.

Length 190 m; draft 6.4 m.

Type: Cargo ship. MMSI: 563862000.

Date/timePositionNaut miles runAvg speedWind from/ knotsBaromVisibWave heightAir tempDewpointWater temp
2015-Aug-14 08:19S 03°59' E 115°33'0 0.0
2015-Aug-14 07:19S 03°59' E 115°33'0 0.0
2015-Aug-14 06:31S 03°59' E 115°33'0 0.0
2015-Aug-14 05:31S 03°59' E 115°33'0 0.0
2015-Aug-13 07:19S 03°59' E 115°33'0 0.0
2015-Aug-12 06:22S 03°59' E 115°33'0 0.0
2015-Aug-12 04:19S 03°59' E 115°33'  
2015-Aug-08 22:28S 03°59' E 115°33'0 0.0
2015-Aug-08 19:31S 03°59' E 115°33'0 0.0
2015-Aug-08 09:31S 03°59' E 115°33'0 0.0
2015-Aug-07 20:28S 03°59' E 115°33'0 0.1
2015-Aug-07 17:30S 03°59' E 115°33'7 6.2
2015-Aug-07 16:25S 04°06' E 115°32'8 8.1
2015-Aug-07 15:26S 04°12' E 115°28'1011.1
2015-Aug-07 14:33S 04°16' E 115°19'9411.8
2015-Aug-07 06:32S 04°26' E 113°45'1511.8
2015-Aug-07 05:15S 04°25' E 113°30'811.6
2015-Aug-07 04:33S 04°24' E 113°22'1211.5
2015-Aug-07 03:30S 04°23' E 113°09'2311.5
2015-Aug-07 01:31S 04°19' E 112°47'1111.6
2015-Aug-07 00:34S 04°16' E 112°36'1211.8
2015-Aug-06 23:33S 04°15' E 112°24'1311.8
2015-Aug-06 22:30S 04°13' E 112°12'1311.8
2015-Aug-06 21:23S 04°10' E 111°59'1012.1
2015-Aug-06 20:33S 04°07' E 111°50'1212.2
2015-Aug-06 19:34S 04°03' E 111°38'1212.3
2015-Aug-06 18:34S 04°00' E 111°26'1212.4
2015-Aug-06 17:34S 03°57' E 111°14'1212.4
2015-Aug-06 16:33S 03°54' E 111°02'2612.1
2015-Aug-06 14:27S 03°53' E 110°36'49511.5
2015-Aug-04 19:16N 01°16' E 104°10'913.2
2015-Aug-04 18:34N 01°15' E 104°01'1212.0
2015-Aug-04 17:34N 01°12' E 103°49'8 7.6
2015-Aug-04 16:33N 01°18' E 103°44'1 1.0
2015-Aug-04 15:28N 01°18' E 103°43'0 0.0
2015-Aug-04 13:19N 01°18' E 103°43'0 0.0
2015-Aug-04 12:31N 01°18' E 103°43'0 0.0
2015-Aug-04 11:13N 01°18' E 103°43'0 0.0
2015-Aug-04 10:07N 01°18' E 103°43'0 0.0
2015-Aug-04 09:31N 01°18' E 103°43'0 0.0
2015-Aug-04 08:31N 01°18' E 103°43'  

Dump ship's entire track history